Time;durP1;ratioP1;P1;durP2;ratioP2;P2;SDS_P1;SDS_P2;PMS_P1;PMS_P2;Temp;Humidity;BMP_temperature;BMP_pressure;BME280_temperature;BME280_humidity;BME280_pressure;Samples;Min_cycle;Max_cycle;Signal;HPM_P1;HPM_P2
2021/12/23 00:02:23;;;;;;;15.85;6.90;;;-9.30;43.50;;;-9.87;90.43;99883.06;4979664;28;129496;-83
2021/12/23 00:04:51;;;;;;;13.20;6.13;;;-9.30;45.20;;;-9.87;91.14;99885.69;5018704;28;129638;-83
2021/12/23 00:07:20;;;;;;;13.27;6.35;;;-9.40;46.40;;;-9.87;91.16;99880.44;5014274;28;119534;-84
2021/12/23 00:12:33;;;;;;;14.43;7.45;;;-9.40;48.90;;;-9.86;91.53;99879.47;5017205;28;129949;-84
2021/12/23 00:15:03;;;;;;;17.40;7.65;;;-9.40;50.10;;;-9.78;91.69;99879.44;5006915;28;129730;-83
2021/12/23 00:17:55;;;;;;;15.55;6.97;;;-9.40;51.30;;;-9.76;91.12;99877.44;4980103;28;119384;-82
2021/12/23 00:23:27;;;;;;;16.45;7.55;;;-9.40;52.50;;;-9.75;91.56;99862.53;4990210;28;128147;-82
2021/12/23 00:26:01;;;;;;;15.07;6.35;;;-9.40;53.60;;;-9.77;90.81;99865.31;5025834;28;129747;-83
2021/12/23 00:28:32;;;;;;;13.45;7.15;;;-9.40;51.60;;;-9.82;90.86;99877.31;4989348;28;120548;-82
2021/12/23 00:31:02;;;;;;;15.27;7.40;;;-9.40;50.00;;;-9.86;90.85;99882.09;5005732;28;121716;-83
2021/12/23 00:33:33;;;;;;;18.38;8.20;;;-9.50;49.60;;;-9.97;91.25;99885.06;5014445;28;129435;-85
2021/12/23 00:36:03;;;;;;;18.45;7.90;;;-9.40;49.80;;;-9.97;91.62;99879.81;5004781;28;130034;-84
2021/12/23 00:38:37;;;;;;;16.63;7.53;;;-9.40;51.60;;;-9.97;91.29;99885.06;5000186;28;118701;-84
2021/12/23 00:41:08;;;;;;;16.35;7.97;;;-9.50;50.70;;;-10.06;90.67;99891.34;5008701;28;119501;-83
2021/12/23 00:43:39;;;;;;;15.43;7.50;;;-9.50;46.50;;;-10.02;91.10;99882.13;5020756;28;129184;-83
2021/12/23 00:46:07;;;;;;;17.83;7.82;;;-9.50;46.30;;;-10.00;91.16;99882.78;4993972;28;129413;-83
2021/12/23 00:48:36;;;;;;;13.70;7.10;;;-9.50;46.70;;;-10.20;90.44;99869.22;5024802;28;119485;-83
2021/12/23 00:51:05;;;;;;;16.52;7.63;;;-9.50;39.20;;;-10.09;90.52;99875.94;5023306;28;119736;-82
2021/12/23 00:53:38;;;;;;;17.65;8.40;;;-9.50;40.90;;;-10.14;90.78;99877.25;5016049;28;131146;-82
2021/12/23 00:56:10;;;;;;;17.88;7.65;;;-9.50;42.40;;;-10.26;90.67;99872.53;5006055;28;129958;-80
2021/12/23 00:58:41;;;;;;;19.25;9.25;;;-9.50;39.40;;;-10.29;90.09;99881.53;5016882;28;119663;-80
2021/12/23 01:01:10;;;;;;;15.48;7.47;;;-9.50;36.40;;;-10.35;90.85;99883.03;5040327;27;119725;-82
2021/12/23 01:03:39;;;;;;;18.50;8.20;;;-9.60;36.30;;;-10.32;90.23;99877.44;5028126;28;129733;-82
2021/12/23 01:06:07;;;;;;;17.20;7.80;;;-9.60;38.20;;;-10.29;91.21;99881.53;4989837;28;129419;-82
2021/12/23 01:08:36;;;;;;;16.00;7.30;;;-9.50;39.40;;;-10.28;90.41;99869.22;5017604;28;119670;-83
2021/12/23 01:11:04;;;;;;;18.85;7.60;;;-9.60;36.40;;;-10.28;89.89;99880.56;5009701;28;119579;-82
2021/12/23 01:13:33;;;;;;;18.27;7.43;;;-9.60;35.80;;;-10.38;90.05;99885.19;5011924;28;129040;-83
2021/12/23 01:16:06;;;;;;;14.02;7.45;;;-9.60;35.50;;;-10.27;89.74;99874.31;5021009;28;129672;-83
2021/12/23 01:18:43;;;;;;;19.48;8.73;;;-9.60;36.10;;;-10.29;90.02;99871.03;4999601;28;121256;-84
2021/12/23 01:21:18;;;;;;;17.17;7.97;;;-9.60;37.90;;;-10.23;89.99;99870.38;5000819;28;121356;-83
2021/12/23 01:23:51;;;;;;;17.92;8.32;;;-9.50;37.70;;;-10.33;90.45;99869.75;5012006;28;130143;-83
2021/12/23 01:26:22;;;;;;;21.25;9.10;;;-9.60;38.00;;;-10.28;90.21;99856.94;5002920;28;129150;-83
2021/12/23 01:28:54;;;;;;;16.58;8.23;;;-9.70;38.80;;;-10.36;90.60;99857.78;4992456;28;119810;-83
2021/12/23 01:31:25;;;;;;;21.58;9.63;;;-9.70;40.20;;;-10.42;90.52;99844.50;4991643;28;119164;-84
2021/12/23 01:33:54;;;;;;;18.42;8.48;;;-9.80;39.30;;;-10.39;90.45;99844.16;4995368;28;129052;-83
2021/12/23 01:36:24;;;;;;;17.52;9.00;;;-9.80;40.20;;;-10.35;90.48;99846.28;5008056;28;129601;-83
2021/12/23 01:38:54;;;;;;;19.20;9.60;;;-9.80;41.00;;;-10.41;90.10;99846.16;5004805;28;119087;-84
2021/12/23 01:41:23;;;;;;;17.15;8.88;;;-9.70;40.80;;;-10.46;90.06;99848.47;4995362;28;118769;-83
2021/12/23 01:43:53;;;;;;;18.40;8.27;;;-9.90;40.40;;;-10.42;89.74;99842.72;4992000;28;128689;-84
2021/12/23 01:46:23;;;;;;;15.65;9.05;;;-9.90;40.00;;;-10.51;89.50;99831.41;5018837;28;129488;-84
2021/12/23 01:48:53;;;;;;;17.75;8.35;;;-9.90;39.20;;;-10.50;89.45;99827.81;5020237;28;119685;-84
2021/12/23 01:51:22;;;;;;;16.42;8.63;;;-10.00;39.10;;;-10.56;89.27;99833.72;4986554;28;118328;-84
2021/12/23 01:53:51;;;;;;;17.63;8.63;;;-10.10;38.80;;;-10.70;89.47;99837.00;5031118;27;129848;-83
2021/12/23 01:56:20;;;;;;;18.55;9.10;;;-10.10;39.30;;;-10.73;90.11;99837.34;5001261;28;128972;-83
2021/12/23 01:58:49;;;;;;;15.60;8.13;;;-10.10;39.60;;;-10.82;90.59;99830.47;5004737;28;119364;-83
2021/12/23 02:01:17;;;;;;;20.08;8.00;;;-10.10;40.20;;;-10.94;90.45;99825.53;4986179;28;118959;-84
2021/12/23 02:03:48;;;;;;;18.63;8.40;;;-10.30;40.00;;;-10.91;90.89;99825.19;5003606;28;130009;-84
2021/12/23 02:06:18;;;;;;;16.73;8.35;;;-10.30;41.30;;;-10.94;90.62;99833.38;4998792;28;129288;-84
2021/12/23 02:08:47;;;;;;;23.00;9.18;;;-10.30;41.40;;;-11.01;91.31;99835.03;4980557;28;121881;-82
2021/12/23 02:11:16;;;;;;;20.33;9.27;;;-10.40;42.70;;;-11.01;91.75;99824.56;5024268;28;121800;-82
2021/12/23 02:13:45;;;;;;;18.83;9.10;;;-10.30;43.90;;;-11.11;91.90;99821.25;4993574;28;129070;-82
2021/12/23 02:16:13;;;;;;;20.88;8.95;;;-10.40;44.90;;;-11.01;91.63;99827.19;5005007;28;129819;-81
2021/12/23 02:18:42;;;;;;;18.30;8.75;;;-10.40;46.00;;;-11.03;91.95;99827.34;5010249;28;118833;-81
2021/12/23 02:21:12;;;;;;;20.40;9.68;;;-10.40;47.00;;;-10.87;92.08;99829.13;5016008;28;118753;-83
2021/12/23 02:23:42;;;;;;;21.20;9.70;;;-10.40;47.60;;;-10.90;91.75;99829.47;5001759;28;129356;-83
2021/12/23 02:26:11;;;;;;;25.52;10.90;;;-10.40;48.10;;;-10.92;91.84;99834.06;5010809;28;129212;-84
2021/12/23 02:28:39;;;;;;;20.77;10.07;;;-10.30;48.50;;;-10.99;92.04;99822.59;4999611;28;119695;-83
2021/12/23 02:31:08;;;;;;;23.10;10.57;;;-10.50;49.80;;;-11.08;92.00;99828.81;5003323;28;119490;-82
2021/12/23 02:33:37;;;;;;;21.42;10.55;;;-10.50;49.20;;;-11.11;92.57;99821.25;5018232;28;129421;-83
2021/12/23 02:36:07;;;;;;;21.73;11.15;;;-10.50;50.50;;;-11.13;92.80;99825.84;4978417;28;129386;-84
2021/12/23 02:38:37;;;;;;;22.00;10.90;;;-10.50;50.80;;;-11.25;92.48;99822.72;5032539;27;119164;-83
2021/12/23 02:41:06;;;;;;;21.85;9.98;;;-10.50;50.90;;;-11.22;92.87;99828.47;4985172;28;118854;-82
2021/12/23 02:43:36;;;;;;;24.30;11.68;;;-10.60;51.10;;;-11.21;93.41;99824.84;5025167;28;128093;-83
2021/12/23 02:46:05;;;;;;;24.10;10.80;;;-10.60;51.80;;;-11.17;93.06;99824.53;5007052;28;130388;-82
2021/12/23 02:48:37;;;;;;;24.60;10.05;;;-10.50;53.00;;;-11.18;93.47;99822.91;5017711;28;119142;-82
2021/12/23 02:51:10;;;;;;;19.90;9.75;;;-10.60;53.70;;;-11.17;93.28;99819.28;4997470;28;117718;-83
2021/12/23 02:53:41;;;;;;;19.00;9.82;;;-10.60;53.90;;;-11.17;93.66;99819.28;5034926;27;129606;-83
2021/12/23 02:56:14;;;;;;;15.60;8.63;;;-10.60;54.00;;;-11.11;93.05;99829.13;5010688;28;129560;-82
2021/12/23 02:58:44;;;;;;;22.33;11.23;;;-10.40;54.90;;;-11.16;93.15;99818.31;5034937;27;121659;-83
2021/12/23 03:01:15;;;;;;;19.05;9.15;;;-10.60;54.30;;;-11.28;92.95;99826.50;5017462;28;122534;-83
2021/12/23 03:03:44;;;;;;;21.05;8.98;;;-10.60;54.20;;;-11.26;93.52;99816.66;4992284;28;129378;-83
2021/12/23 03:06:18;;;;;;;20.60;9.52;;;-10.70;54.70;;;-11.32;93.18;99817.31;5023186;28;129916;-83
2021/12/23 03:08:51;;;;;;;19.98;9.55;;;-10.80;55.00;;;-11.51;93.90;99820.22;4984519;28;119708;-83
2021/12/23 03:11:24;;;;;;;22.38;10.23;;;-10.70;56.30;;;-11.36;94.32;99818.59;5015055;28;118755;-84
2021/12/23 03:13:54;;;;;;;21.08;10.30;;;-10.80;58.10;;;-11.36;94.14;99815.19;4989181;28;128939;-83
2021/12/23 03:16:27;;;;;;;21.35;10.32;;;-10.80;58.90;;;-11.39;94.27;99816.31;5010706;28;130244;-82
2021/12/23 03:18:56;;;;;;;20.67;8.73;;;-10.80;59.70;;;-11.48;94.63;99817.28;5017740;28;119432;-82
2021/12/23 03:21:25;;;;;;;22.65;8.98;;;-10.80;59.70;;;-11.61;95.31;99813.34;5024496;28;119449;-83
2021/12/23 03:23:55;;;;;;;24.27;10.40;;;-10.80;59.90;;;-11.54;95.10;99802.19;5017170;28;129952;-79
2021/12/23 03:26:24;;;;;;;20.80;9.88;;;-10.80;60.50;;;-11.62;95.83;99808.25;5007000;28;130039;-81
2021/12/23 03:28:53;;;;;;;26.55;11.00;;;-10.80;61.30;;;-11.50;95.91;99795.66;5025292;28;119979;-81
2021/12/23 03:31:21;;;;;;;22.33;9.88;;;-10.80;62.00;;;-11.55;95.81;99803.19;5044453;27;119609;-82
2021/12/23 03:33:50;;;;;;;22.75;10.45;;;-10.80;63.00;;;-11.53;96.04;99803.84;5019745;28;129931;-81
2021/12/23 03:36:19;;;;;;;24.23;10.18;;;-10.80;63.20;;;-11.49;95.80;99810.41;4990628;28;128535;-81
2021/12/23 03:38:48;;;;;;;24.95;10.85;;;-10.80;63.90;;;-11.53;95.04;99803.84;4990197;28;118852;-80
2021/12/23 03:41:19;;;;;;;22.98;10.98;;;-10.90;64.40;;;-11.54;95.01;99812.66;5005655;28;119213;-81
2021/12/23 03:43:48;;;;;;;22.73;9.50;;;-11.00;64.70;;;-11.41;95.32;99802.56;5004519;28;130282;-83
2021/12/23 03:46:16;;;;;;;23.70;10.10;;;-11.00;65.80;;;-11.38;95.67;99802.25;4987502;28;129788;-77
2021/12/23 03:48:45;;;;;;;23.15;10.48;;;-10.90;67.00;;;-11.36;94.95;99789.78;4989191;28;120533;-82
2021/12/23 03:51:14;;;;;;;22.33;11.02;;;-10.90;67.30;;;-11.35;94.68;99791.44;4973175;28;121497;-82
2021/12/23 03:53:42;;;;;;;26.10;10.50;;;-10.70;68.10;;;-11.31;94.66;99797.16;4989166;28;130380;-79
2021/12/23 03:56:11;;;;;;;26.83;10.45;;;-10.90;68.30;;;-11.32;94.68;99806.03;5004153;28;129458;-78
2021/12/23 03:58:41;;;;;;;24.33;11.18;;;-10.80;69.10;;;-11.40;94.83;99805.03;4989866;28;119469;-78
2021/12/23 04:01:10;;;;;;;21.67;10.27;;;-11.00;67.50;;;-11.44;95.15;99803.69;4986469;28;119146;-79
2021/12/23 04:03:39;;;;;;;23.17;10.80;;;-11.00;68.40;;;-11.38;95.03;99797.81;4972708;28;129812;-78
2021/12/23 04:06:07;;;;;;;26.50;11.38;;;-10.90;69.30;;;-11.32;95.33;99791.13;5004304;28;130193;-79
2021/12/23 04:08:36;;;;;;;24.65;10.65;;;-11.00;69.80;;;-11.23;94.57;99790.13;4972972;28;118699;-79
2021/12/23 04:11:05;;;;;;;23.35;10.93;;;-10.90;70.40;;;-11.24;94.69;99796.34;4973207;28;119695;-79
2021/12/23 04:13:34;;;;;;;23.58;10.18;;;-11.00;69.90;;;-11.24;94.03;99796.34;5004042;28;130156;-79
2021/12/23 04:16:04;;;;;;;27.25;12.73;;;-10.90;71.00;;;-11.29;94.14;99790.78;4976573;28;129776;-78
2021/12/23 04:18:33;;;;;;;25.48;11.95;;;-10.90;71.00;;;-11.27;94.26;99780.16;5009559;28;119494;-78
2021/12/23 04:21:02;;;;;;;26.90;10.73;;;-10.90;71.00;;;-11.28;94.89;99787.19;5009078;28;119846;-79
2021/12/23 04:23:33;;;;;;;26.83;10.82;;;-10.80;71.50;;;-11.31;94.48;99787.53;4989813;28;129710;-78
2021/12/23 04:26:02;;;;;;;24.00;10.50;;;-10.90;71.80;;;-11.31;94.66;99777.03;5008256;28;128856;-75
2021/12/23 04:28:31;;;;;;;22.95;10.60;;;-10.90;71.90;;;-11.30;94.66;99780.47;5003000;28;119833;-76
2021/12/23 04:30:59;;;;;;;22.55;10.55;;;-10.90;71.60;;;-11.33;94.50;99768.50;4972674;28;118653;-77
2021/12/23 04:33:29;;;;;;;19.38;9.48;;;-10.90;71.40;;;-11.31;94.45;99769.19;4985563;28;130131;-76
2021/12/23 04:35:57;;;;;;;24.98;10.95;;;-10.90;71.00;;;-11.27;93.76;99773.09;4990472;28;130744;-77
2021/12/23 04:38:26;;;;;;;22.95;10.73;;;-10.90;69.50;;;-11.53;93.70;99767.97;5002115;28;122008;-78
2021/12/23 04:40:54;;;;;;;22.77;10.88;;;-11.00;67.20;;;-11.42;94.36;99769.47;5003081;28;122253;-77
2021/12/23 04:43:23;;;;;;;22.75;9.73;;;-11.00;68.90;;;-11.49;94.49;99764.06;4988033;28;129941;-77
2021/12/23 04:45:52;;;;;;;33.03;13.07;;;-11.00;68.80;;;-11.38;94.89;99760.31;5001994;28;129230;-76
2021/12/23 04:48:20;;;;;;;24.27;11.30;;;-11.00;70.00;;;-11.25;94.96;99755.44;5012482;28;119983;-77
2021/12/23 04:50:50;;;;;;;22.50;11.13;;;-10.80;71.60;;;-11.15;94.45;99764.94;5021198;28;119236;-76
2021/12/23 04:53:19;;;;;;;26.42;11.15;;;-10.80;72.40;;;-11.12;94.30;99760.16;5024694;28;129756;-76
2021/12/23 04:55:47;;;;;;;24.85;12.27;;;-10.70;71.80;;;-11.11;94.54;99750.50;5023407;28;129605;-77
2021/12/23 04:58:16;;;;;;;31.13;12.45;;;-10.80;73.10;;;-11.05;94.08;99749.84;4991475;28;118261;-77
2021/12/23 05:00:48;;;;;;;24.23;11.68;;;-10.70;73.30;;;-10.96;93.56;99742.78;5023079;28;119386;-77
2021/12/23 05:03:17;;;;;;;23.00;11.05;;;-10.50;73.60;;;-10.87;93.84;99745.22;5006558;28;129075;-76
2021/12/23 05:05:46;;;;;;;37.08;14.88;;;-10.70;74.10;;;-10.79;93.47;99738.34;4990633;28;129012;-77
2021/12/23 05:08:19;;;;;;;26.45;12.85;;;-10.70;74.10;;;-10.90;92.38;99737.69;5008512;28;119453;-77
2021/12/23 05:10:48;;;;;;;28.55;11.75;;;-10.80;72.30;;;-10.88;91.99;99738.34;5023021;28;119496;-77
2021/12/23 05:13:17;;;;;;;24.38;10.40;;;-10.80;72.30;;;-10.92;92.75;99742.28;5005570;28;129884;-76
2021/12/23 05:15:46;;;;;;;21.85;10.27;;;-10.80;72.10;;;-10.89;92.96;99738.50;5023013;28;129729;-78
2021/12/23 05:18:15;;;;;;;28.65;12.35;;;-10.70;73.20;;;-10.96;92.71;99748.84;5023667;28;119725;-78
2021/12/23 05:20:44;;;;;;;28.60;17.52;;;-10.80;71.80;;;-11.05;92.29;99747.22;5026130;28;119404;-79
2021/12/23 05:23:12;;;;;;;31.40;16.52;;;-10.80;70.00;;;-11.02;92.15;99733.78;5005332;28;130451;-78
2021/12/23 05:25:43;;;;;;;26.85;13.98;;;-10.90;70.40;;;-11.18;92.81;99733.81;5004734;28;130207;-79
2021/12/23 05:28:13;;;;;;;25.05;12.90;;;-10.90;68.70;;;-11.25;92.77;99726.59;5021674;28;122011;-79
2021/12/23 05:30:43;;;;;;;23.45;12.25;;;-11.00;68.80;;;-11.34;92.74;99719.72;5023222;28;121761;-78
2021/12/23 05:33:15;;;;;;;23.17;10.95;;;-11.00;69.00;;;-11.23;92.99;99722.00;5007783;28;129371;-78
2021/12/23 05:35:43;;;;;;;29.70;11.55;;;-11.10;69.40;;;-11.26;92.99;99706.59;5006897;28;129156;-78
2021/12/23 05:38:12;;;;;;;27.10;12.68;;;-11.10;69.00;;;-11.31;92.27;99708.91;5007616;28;119450;-78
2021/12/23 05:40:43;;;;;;;25.75;11.68;;;-11.20;68.20;;;-11.35;92.26;99712.84;5022552;28;119678;-78
2021/12/23 05:43:12;;;;;;;23.67;11.82;;;-11.30;68.30;;;-11.44;92.22;99713.81;5007883;28;129214;-78
2021/12/23 05:45:41;;;;;;;27.92;12.85;;;-11.30;67.80;;;-11.54;91.91;99727.06;5007759;28;129318;-78
2021/12/23 05:48:10;;;;;;;31.08;12.43;;;-11.40;67.50;;;-11.66;92.60;99712.66;5009169;28;119062;-78
2021/12/23 05:50:39;;;;;;;27.65;11.55;;;-11.50;68.30;;;-11.67;92.72;99709.22;4994957;28;118752;-78
2021/12/23 05:53:08;;;;;;;23.88;9.95;;;-11.60;67.40;;;-11.88;93.24;99716.72;4993539;28;129446;-78
2021/12/23 05:55:37;;;;;;;23.67;9.82;;;-11.60;67.60;;;-11.83;93.34;99717.03;5025600;28;130015;-79
2021/12/23 05:58:07;;;;;;;25.35;10.93;;;-11.70;67.60;;;-11.94;93.09;99711.16;5029052;28;119559;-78
2021/12/23 06:00:36;;;;;;;21.98;10.75;;;-11.70;67.70;;;-12.01;93.45;99707.56;5025676;28;119528;-78
2021/12/23 06:03:05;;;;;;;23.73;10.52;;;-11.80;68.10;;;-12.03;93.81;99712.13;5010580;28;129560;-78
2021/12/23 06:05:34;;;;;;;22.42;10.40;;;-11.80;68.00;;;-12.07;93.74;99712.59;5008939;28;128651;-78
2021/12/23 06:08:02;;;;;;;23.83;10.98;;;-11.90;68.10;;;-12.05;93.53;99711.47;5017303;28;119730;-78
2021/12/23 06:10:31;;;;;;;26.83;10.75;;;-11.90;68.20;;;-12.14;93.93;99717.66;4994396;28;118364;-77
2021/12/23 06:13:00;;;;;;;26.70;11.00;;;-11.90;69.20;;;-12.08;94.01;99706.56;5023621;28;130141;-75
2021/12/23 06:15:30;;;;;;;26.60;11.65;;;-11.80;69.50;;;-12.19;94.60;99709.47;4992991;28;128843;-74
2021/12/23 06:17:59;;;;;;;22.50;10.95;;;-11.70;70.50;;;-12.09;95.16;99709.31;5009270;28;120866;-78
2021/12/23 06:20:28;;;;;;;27.23;11.25;;;-11.60;71.20;;;-11.87;94.98;99702.63;5025145;28;121869;-78
2021/12/23 06:22:56;;;;;;;30.38;12.68;;;-11.60;71.40;;;-11.84;94.87;99707.53;5009726;28;130142;-77
2021/12/23 06:25:25;;;;;;;25.15;11.25;;;-11.50;71.70;;;-11.76;95.12;99707.59;4993951;28;128899;-78
2021/12/23 06:27:54;;;;;;;28.67;12.98;;;-11.40;72.00;;;-11.81;95.08;99707.22;5011211;28;119490;-77
2021/12/23 06:30:22;;;;;;;35.05;11.57;;;-11.30;72.10;;;-11.77;95.35;99698.88;5025923;28;119739;-78
2021/12/23 06:32:56;;;;;;;22.73;11.27;;;-11.20;72.30;;;-11.71;95.49;99696.63;5010784;28;129187;-78
2021/12/23 06:35:27;;;;;;;26.05;11.25;;;-11.10;71.90;;;-11.57;94.97;99694.16;5024633;28;129779;-79
2021/12/23 06:37:57;;;;;;;24.80;11.65;;;-11.00;71.20;;;-11.40;94.63;99704.66;5010856;28;119167;-77
2021/12/23 06:40:26;;;;;;;23.50;10.90;;;-10.90;71.10;;;-11.19;94.27;99703.31;5008051;28;119620;-79
2021/12/23 06:42:54;;;;;;;26.98;11.50;;;-10.90;71.10;;;-11.01;93.37;99698.72;5009905;28;129938;-78
2021/12/23 06:45:23;;;;;;;24.90;11.93;;;-10.80;72.00;;;-10.92;93.31;99700.34;4993879;28;129132;-77
2021/12/23 06:47:53;;;;;;;25.92;11.88;;;-10.80;71.30;;;-10.92;93.20;99695.09;5025673;28;119468;-77
2021/12/23 06:50:22;;;;;;;28.38;11.65;;;-10.70;71.20;;;-10.87;92.82;99684.13;5025872;28;119402;-78
2021/12/23 06:52:52;;;;;;;23.42;10.88;;;-10.60;70.90;;;-10.93;93.13;99680.34;5010625;28;128784;-78
2021/12/23 06:55:21;;;;;;;22.98;10.43;;;-10.60;70.10;;;-10.90;93.62;99674.78;5025054;28;129919;-77
2021/12/23 06:57:55;;;;;;;20.90;10.13;;;-10.50;69.90;;;-10.83;94.16;99676.72;5025371;28;119491;-78
2021/12/23 07:00:40;;;;;;;26.42;10.38;;;-10.50;69.90;;;-10.70;93.25;99674.41;5009824;28;118738;-78
2021/12/23 07:03:10;;;;;;;21.08;11.02;;;-10.40;70.30;;;-10.56;93.43;99671.06;5026542;28;130099;-78
2021/12/23 07:05:39;;;;;;;22.88;10.38;;;-10.30;70.40;;;-10.30;93.10;99659.41;5024419;28;129629;-78
2021/12/23 07:08:11;;;;;;;22.83;11.38;;;-10.20;70.90;;;-10.45;92.85;99666.41;5005946;28;121957;-78
2021/12/23 07:10:41;;;;;;;24.45;11.65;;;-10.10;70.60;;;-10.16;93.11;99666.59;5010167;28;121001;-78
2021/12/23 07:13:10;;;;;;;23.17;11.23;;;-9.90;71.50;;;-10.18;92.07;99662.50;5007036;28;130030;-78
2021/12/23 07:15:38;;;;;;;19.98;9.93;;;-10.00;69.20;;;-10.07;92.67;99663.91;5025392;28;129568;-78
2021/12/23 07:18:07;;;;;;;23.00;10.27;;;-9.90;68.10;;;-10.00;92.66;99662.19;5010322;28;119171;-78
2021/12/23 07:20:37;;;;;;;18.25;8.73;;;-9.90;68.30;;;-10.00;92.74;99654.31;4993564;28;118935;-78
2021/12/23 07:23:06;;;;;;;21.85;9.65;;;-9.80;68.50;;;-9.68;92.18;99652.47;5025008;28;129792;-79
2021/12/23 07:25:35;;;;;;;21.73;11.32;;;-9.70;70.00;;;-9.68;92.07;99642.78;5009546;28;129542;-79
2021/12/23 07:28:04;;;;;;;19.58;10.27;;;-9.60;69.40;;;-9.48;91.65;99653.63;5024996;28;119741;-78
2021/12/23 07:30:32;;;;;;;20.27;10.80;;;-9.60;68.90;;;-9.45;91.55;99647.22;4993233;28;119208;-78
2021/12/23 07:33:01;;;;;;;18.55;8.80;;;-9.50;68.60;;;-9.24;90.22;99638.63;4991637;28;129642;-76
2021/12/23 07:35:30;;;;;;;20.33;9.65;;;-9.50;68.50;;;-9.09;90.62;99643.91;5024381;28;129681;-76
2021/12/23 07:38:01;;;;;;;26.88;10.55;;;-9.40;69.90;;;-9.09;89.26;99639.47;5009610;28;119448;-75
2021/12/23 07:40:31;;;;;;;19.05;9.50;;;-9.30;67.80;;;-9.07;89.16;99634.84;5009758;28;118398;-75
2021/12/23 07:43:20;;;;;;;21.25;10.82;;;-9.30;65.60;;;-9.18;89.81;99630.03;5024067;28;131027;-75
2021/12/23 07:45:49;;;;;;;26.13;10.70;;;-9.30;65.20;;;-9.04;89.66;99623.13;5008833;28;129363;-75
2021/12/23 07:48:18;;;;;;;18.25;9.23;;;-9.30;65.10;;;-9.17;89.81;99618.50;5009809;28;119282;-75
2021/12/23 07:50:51;;;;;;;17.98;9.20;;;-9.40;63.20;;;-9.03;88.68;99622.16;5009712;28;118811;-75
2021/12/23 07:53:22;;;;;;;19.33;9.27;;;-9.30;62.30;;;-8.94;89.20;99613.19;4992460;28;129009;-75
2021/12/23 07:55:52;;;;;;;20.55;9.23;;;-9.20;62.40;;;-8.50;88.16;99616.75;5008971;28;129771;-75
2021/12/23 07:58:21;;;;;;;21.23;9.95;;;-9.00;63.60;;;-8.28;87.45;99611.53;5022735;28;121753;-76
2021/12/23 08:00:50;;;;;;;19.85;8.73;;;-8.80;60.40;;;-8.29;87.24;99615.16;5009272;28;121799;-75
2021/12/23 08:03:18;;;;;;;18.80;10.00;;;-8.70;59.20;;;-8.10;86.52;99604.03;5005937;28;130941;-76
2021/12/23 08:05:47;;;;;;;21.35;9.68;;;-8.60;59.40;;;-8.08;87.11;99602.00;5024033;28;130107;-76
2021/12/23 08:08:15;;;;;;;18.23;9.00;;;-8.50;57.10;;;-8.22;85.95;99601.03;5024382;28;120033;-76
2021/12/23 08:10:45;;;;;;;17.85;8.85;;;-8.50;50.90;;;-8.00;86.65;99598.44;5024251;28;119161;-76
2021/12/23 08:13:16;;;;;;;16.50;8.82;;;-8.50;51.90;;;-8.13;86.08;99599.94;5006179;28;129673;-76
2021/12/23 08:15:44;;;;;;;17.45;8.88;;;-8.40;50.00;;;-7.86;85.79;99591.47;5024442;28;130004;-76
2021/12/23 08:18:14;;;;;;;19.92;7.78;;;-8.30;49.50;;;-7.77;85.16;99587.69;5024269;28;119671;-76
2021/12/23 08:20:42;;;;;;;16.58;8.10;;;-8.20;49.40;;;-8.08;84.32;99577.50;5026524;28;119545;-76
2021/12/23 08:23:11;;;;;;;16.67;8.43;;;-8.20;43.70;;;-8.05;84.92;99575.28;5022820;28;130024;-76
2021/12/23 08:25:40;;;;;;;12.30;7.38;;;-8.20;42.70;;;-8.01;84.32;99573.09;5023911;28;130221;-76
2021/12/23 08:28:10;;;;;;;15.75;7.55;;;-8.20;40.70;;;-8.10;84.84;99572.41;5024250;28;120857;-76
2021/12/23 08:30:40;;;;;;;14.10;7.70;;;-8.20;38.20;;;-7.89;83.20;99562.88;5009608;28;118352;-76
2021/12/23 08:33:11;;;;;;;15.18;7.43;;;-8.30;36.30;;;-7.85;83.29;99566.72;5023901;28;129743;-76
2021/12/23 08:35:40;;;;;;;15.48;7.38;;;-8.30;34.70;;;-7.89;82.44;99568.13;5024126;28;129975;-76
2021/12/23 08:38:08;;;;;;;18.70;7.97;;;-8.30;34.70;;;-7.98;82.67;99560.38;5024014;28;120402;-76
2021/12/23 08:40:37;;;;;;;20.80;8.95;;;-8.20;35.60;;;-7.80;81.49;99561.72;5009710;28;119317;-76
2021/12/23 08:43:06;;;;;;;22.88;8.63;;;-8.30;29.80;;;-8.01;81.71;99560.75;5023528;28;129841;-76
2021/12/23 08:45:37;;;;;;;19.20;8.73;;;-8.30;29.70;;;-7.07;79.13;99561.41;5008711;28;129278;-76
2021/12/23 08:48:18;;;;;;;16.85;8.32;;;-8.00;30.00;;;-6.40;76.84;99548.50;5022760;28;122132;-76
2021/12/23 08:50:46;;;;;;;16.88;7.88;;;-7.70;31.00;;;-6.31;75.84;99539.34;5023869;28;121907;-77
2021/12/23 08:53:15;;;;;;;13.20;7.68;;;-7.50;27.60;;;-6.39;76.37;99539.53;5023607;28;130336;-76
2021/12/23 08:55:52;;;;;;;15.57;7.80;;;-7.30;24.10;;;-6.41;74.24;99538.94;5023824;28;130269;-76
2021/12/23 08:58:21;;;;;;;16.80;8.25;;;-7.40;22.40;;;-6.80;76.00;99537.78;5024297;28;120221;-76
2021/12/23 09:00:51;;;;;;;14.65;7.65;;;-7.30;22.80;;;-6.93;76.93;99547.28;5009492;28;118832;-76
2021/12/23 09:04:17;;;;;;;14.45;6.88;;;-7.40;20.60;;;-7.11;75.91;99541.69;5014957;28;130547;-76
2021/12/23 09:06:46;;;;;;;14.25;8.80;;;-7.60;21.10;;;-7.34;78.28;99545.41;4994482;28;129872;-76
2021/12/23 09:09:14;;;;;;;15.18;7.97;;;-7.60;21.60;;;-7.64;78.92;99534.28;4988486;28;118927;-76
2021/12/23 09:11:43;;;;;;;18.73;8.30;;;-7.70;21.00;;;-7.90;80.47;99529.63;4988753;28;119897;-75
2021/12/23 09:14:12;;;;;;;15.77;7.38;;;-7.80;21.00;;;-8.03;81.08;99525.84;5003471;28;129757;-76
2021/12/23 09:16:42;;;;;;;17.42;8.15;;;-7.80;21.70;;;-8.09;81.56;99523.97;4972920;28;129197;-76
2021/12/23 09:19:11;;;;;;;19.67;9.07;;;-7.90;22.60;;;-7.93;81.87;99516.81;4988635;28;118759;-75
2021/12/23 09:21:43;;;;;;;18.17;8.10;;;-7.70;24.20;;;-7.87;82.31;99521.31;4972230;28;119609;-76
2021/12/23 09:24:11;;;;;;;19.60;9.43;;;-7.90;25.40;;;-7.66;81.75;99516.03;4991808;28;129466;-76
2021/12/23 09:26:49;;;;;;;15.27;8.65;;;-7.70;28.40;;;-7.65;81.17;99501.84;4991836;28;129499;-75
2021/12/23 09:34:54;;;;;;;19.98;9.48;;;-7.60;27.50;;;-7.08;80.00;99489.34;4975132;28;128983;-76
2021/12/23 09:37:24;;;;;;;16.52;8.95;;;-7.40;26.90;;;-6.67;77.78;99482.38;4990281;28;129163;-76
2021/12/23 09:39:54;;;;;;;27.15;8.77;;;-7.40;27.30;;;-6.78;77.53;99480.34;4990952;28;120857;-76
2021/12/23 09:42:27;;;;;;;18.33;8.85;;;-7.50;24.30;;;-7.26;78.64;99474.06;5006697;28;121850;-75
2021/12/23 09:45:04;;;;;;;20.25;10.02;;;-7.40;22.40;;;-7.14;78.83;99471.69;4988862;28;129737;-76
2021/12/23 09:47:42;;;;;;;19.50;8.52;;;-7.50;23.70;;;-7.18;79.79;99464.34;4988603;28;129742;-76
2021/12/23 09:50:15;;;;;;;19.02;9.05;;;-7.50;26.80;;;-6.99;78.31;99452.28;5006759;28;119967;-76
2021/12/23 09:52:47;;;;;;;17.80;8.88;;;-7.60;27.10;;;-7.44;80.85;99457.97;4990663;28;119881;-76
2021/12/23 09:55:19;;;;;;;16.27;8.75;;;-7.60;27.30;;;-7.52;81.13;99453.66;4992510;28;129547;-76
2021/12/23 09:57:48;;;;;;;17.10;8.30;;;-7.60;28.50;;;-7.55;81.45;99448.78;4990325;28;129555;-77
2021/12/23 10:00:21;;;;;;;18.00;9.00;;;-7.60;29.30;;;-7.60;81.22;99446.72;5011449;28;119343;-76
2021/12/23 10:02:52;;;;;;;20.55;10.13;;;-7.70;27.60;;;-7.60;81.56;99438.00;4976855;28;118817;-76
2021/12/23 10:05:26;;;;;;;21.38;9.45;;;-7.80;26.80;;;-7.49;81.77;99447.19;4974567;28;129465;-76
2021/12/23 10:07:55;;;;;;;19.42;9.02;;;-7.70;29.20;;;-7.60;81.44;99433.53;4977256;28;129929;-76
2021/12/23 10:10:32;;;;;;;18.38;9.27;;;-7.60;29.40;;;-7.31;81.56;99439.53;5007200;28;119669;-77
2021/12/23 10:26:50;;;;;;;18.23;9.15;;;-7.60;30.70;;;-7.39;81.84;99434.44;5009282;28;119317;-76
2021/12/23 10:33:29;;;;;;;18.48;9.70;;;-7.20;26.20;;;-6.42;78.50;99378.84;4993419;28;122278;-76
2021/12/23 10:38:53;;;;;;;17.85;9.55;;;-7.00;24.20;;;-6.49;77.50;99372.78;5021038;28;130492;-76
2021/12/23 10:41:25;;;;;;;18.08;9.70;;;-7.10;22.60;;;-6.46;77.00;99367.88;5025202;28;129627;-76